sensor_id;sensor_type;location;lat;lon;timestamp;temperature;humidity
19580;DHT22;9936;51.040;13.918;2023-11-21T00:03:24;8.20;99.90
19580;DHT22;9936;51.040;13.918;2023-11-21T00:07:26;8.20;99.90
19580;DHT22;9936;51.040;13.918;2023-11-21T00:11:15;8.20;99.90
19580;DHT22;9936;51.040;13.918;2023-11-21T00:15:10;8.20;99.90
19580;DHT22;9936;51.040;13.918;2023-11-21T00:19:01;8.20;99.90
19580;DHT22;9936;51.040;13.918;2023-11-21T00:22:51;8.10;99.90
19580;DHT22;9936;51.040;13.918;2023-11-21T00:26:53;8.10;99.90
19580;DHT22;9936;51.040;13.918;2023-11-21T00:30:41;8.10;99.90
19580;DHT22;9936;51.040;13.918;2023-11-21T00:34:36;8.10;99.90
19580;DHT22;9936;51.040;13.918;2023-11-21T00:38:25;8.10;99.90
19580;DHT22;9936;51.040;13.918;2023-11-21T00:42:19;8.20;99.90
19580;DHT22;9936;51.040;13.918;2023-11-21T00:46:07;8.20;99.90
19580;DHT22;9936;51.040;13.918;2023-11-21T00:50:18;8.20;99.90
19580;DHT22;9936;51.040;13.918;2023-11-21T00:54:07;8.40;99.90
19580;DHT22;9936;51.040;13.918;2023-11-21T00:57:54;8.20;99.90
19580;DHT22;9936;51.040;13.918;2023-11-21T01:01:47;8.10;99.90
19580;DHT22;9936;51.040;13.918;2023-11-21T01:05:55;8.10;99.90
19580;DHT22;9936;51.040;13.918;2023-11-21T01:09:44;8.10;99.90
19580;DHT22;9936;51.040;13.918;2023-11-21T01:13:35;8.30;99.90
19580;DHT22;9936;51.040;13.918;2023-11-21T01:17:40;8.10;99.90
19580;DHT22;9936;51.040;13.918;2023-11-21T01:21:27;8.10;99.90
19580;DHT22;9936;51.040;13.918;2023-11-21T01:25:26;8.00;99.90
19580;DHT22;9936;51.040;13.918;2023-11-21T01:29:18;8.00;99.90
19580;DHT22;9936;51.040;13.918;2023-11-21T01:33:34;8.00;99.90
19580;DHT22;9936;51.040;13.918;2023-11-21T01:37:37;7.90;99.90
19580;DHT22;9936;51.040;13.918;2023-11-21T01:41:25;8.00;99.90
19580;DHT22;9936;51.040;13.918;2023-11-21T01:45:17;8.10;99.90
19580;DHT22;9936;51.040;13.918;2023-11-21T01:49:13;8.10;99.90
19580;DHT22;9936;51.040;13.918;2023-11-21T01:53:06;8.00;99.90
19580;DHT22;9936;51.040;13.918;2023-11-21T01:57:22;8.10;99.90
19580;DHT22;9936;51.040;13.918;2023-11-21T02:01:11;8.10;99.90
19580;DHT22;9936;51.040;13.918;2023-11-21T02:05:07;8.10;99.90
19580;DHT22;9936;51.040;13.918;2023-11-21T02:08:59;8.10;99.90
19580;DHT22;9936;51.040;13.918;2023-11-21T02:12:53;8.10;99.90
19580;DHT22;9936;51.040;13.918;2023-11-21T02:17:13;8.20;99.90
19580;DHT22;9936;51.040;13.918;2023-11-21T02:21:04;7.90;99.90
19580;DHT22;9936;51.040;13.918;2023-11-21T02:24:53;8.10;99.90
19580;DHT22;9936;51.040;13.918;2023-11-21T02:28:51;8.00;99.90
19580;DHT22;9936;51.040;13.918;2023-11-21T02:32:55;8.20;99.90
19580;DHT22;9936;51.040;13.918;2023-11-21T02:36:55;8.00;99.90
19580;DHT22;9936;51.040;13.918;2023-11-21T02:40:56;8.00;99.90
19580;DHT22;9936;51.040;13.918;2023-11-21T02:45:24;8.00;99.90
19580;DHT22;9936;51.040;13.918;2023-11-21T02:49:42;8.00;99.90
19580;DHT22;9936;51.040;13.918;2023-11-21T02:53:33;8.00;99.90
19580;DHT22;9936;51.040;13.918;2023-11-21T02:57:44;8.00;99.90
19580;DHT22;9936;51.040;13.918;2023-11-21T03:06:07;8.10;99.90
19580;DHT22;9936;51.040;13.918;2023-11-21T03:09:54;8.10;99.90
19580;DHT22;9936;51.040;13.918;2023-11-21T03:13:49;8.00;99.90
19580;DHT22;9936;51.040;13.918;2023-11-21T03:18:10;8.00;99.90
19580;DHT22;9936;51.040;13.918;2023-11-21T03:22:23;7.90;99.90
19580;DHT22;9936;51.040;13.918;2023-11-21T03:31:28;8.00;99.90
19580;DHT22;9936;51.040;13.918;2023-11-21T03:35:23;7.80;99.90
19580;DHT22;9936;51.040;13.918;2023-11-21T03:39:45;8.00;99.90
19580;DHT22;9936;51.040;13.918;2023-11-21T03:44:01;7.90;99.90
19580;DHT22;9936;51.040;13.918;2023-11-21T03:48:01;8.00;99.90
19580;DHT22;9936;51.040;13.918;2023-11-21T03:51:52;7.90;99.90
19580;DHT22;9936;51.040;13.918;2023-11-21T03:56:14;7.90;99.90
19580;DHT22;9936;51.040;13.918;2023-11-21T04:00:37;7.90;99.90
19580;DHT22;9936;51.040;13.918;2023-11-21T04:04:30;7.90;99.90
19580;DHT22;9936;51.040;13.918;2023-11-21T04:08:36;7.90;99.90
19580;DHT22;9936;51.040;13.918;2023-11-21T04:12:31;7.80;99.90
19580;DHT22;9936;51.040;13.918;2023-11-21T04:17:02;7.80;99.90
19580;DHT22;9936;51.040;13.918;2023-11-21T04:21:06;7.90;99.90
19580;DHT22;9936;51.040;13.918;2023-11-21T04:25:07;7.90;99.90
19580;DHT22;9936;51.040;13.918;2023-11-21T04:29:14;7.90;99.90
19580;DHT22;9936;51.040;13.918;2023-11-21T04:33:11;7.80;99.90
19580;DHT22;9936;51.040;13.918;2023-11-21T04:37:37;7.80;99.90
19580;DHT22;9936;51.040;13.918;2023-11-21T04:41:55;7.70;99.90
19580;DHT22;9936;51.040;13.918;2023-11-21T04:46:19;7.70;99.90
19580;DHT22;9936;51.040;13.918;2023-11-21T04:51:06;7.80;99.90
19580;DHT22;9936;51.040;13.918;2023-11-21T04:54:57;7.80;99.90
19580;DHT22;9936;51.040;13.918;2023-11-21T04:59:06;7.80;99.90
19580;DHT22;9936;51.040;13.918;2023-11-21T05:02:59;7.70;99.90
19580;DHT22;9936;51.040;13.918;2023-11-21T05:06:49;7.80;99.90
19580;DHT22;9936;51.040;13.918;2023-11-21T05:11:04;7.80;99.90
19580;DHT22;9936;51.040;13.918;2023-11-21T05:14:57;7.80;99.90
19580;DHT22;9936;51.040;13.918;2023-11-21T05:18:53;7.80;99.90
19580;DHT22;9936;51.040;13.918;2023-11-21T05:22:48;7.60;99.90
19580;DHT22;9936;51.040;13.918;2023-11-21T05:26:34;7.70;99.90
19580;DHT22;9936;51.040;13.918;2023-11-21T05:30:22;7.70;99.90
19580;DHT22;9936;51.040;13.918;2023-11-21T05:34:08;7.70;99.90
19580;DHT22;9936;51.040;13.918;2023-11-21T05:37:54;7.70;99.90
19580;DHT22;9936;51.040;13.918;2023-11-21T05:41:51;7.80;99.90
19580;DHT22;9936;51.040;13.918;2023-11-21T05:45:38;7.80;99.90
19580;DHT22;9936;51.040;13.918;2023-11-21T05:49:24;7.80;99.90
19580;DHT22;9936;51.040;13.918;2023-11-21T05:53:12;7.80;99.90
19580;DHT22;9936;51.040;13.918;2023-11-21T05:57:02;7.80;99.90
19580;DHT22;9936;51.040;13.918;2023-11-21T06:00:47;7.80;99.90
19580;DHT22;9936;51.040;13.918;2023-11-21T06:04:33;7.80;99.90
19580;DHT22;9936;51.040;13.918;2023-11-21T06:08:19;7.80;99.90
19580;DHT22;9936;51.040;13.918;2023-11-21T06:12:06;7.80;99.90
19580;DHT22;9936;51.040;13.918;2023-11-21T06:16:01;7.80;99.90
19580;DHT22;9936;51.040;13.918;2023-11-21T06:19:56;7.80;99.90
19580;DHT22;9936;51.040;13.918;2023-11-21T06:23:49;7.80;99.90
19580;DHT22;9936;51.040;13.918;2023-11-21T06:27:45;7.80;99.90
19580;DHT22;9936;51.040;13.918;2023-11-21T06:31:36;7.80;99.90
19580;DHT22;9936;51.040;13.918;2023-11-21T06:35:30;7.80;99.90
19580;DHT22;9936;51.040;13.918;2023-11-21T06:39:23;7.70;99.90
19580;DHT22;9936;51.040;13.918;2023-11-21T06:43:12;7.80;99.90
19580;DHT22;9936;51.040;13.918;2023-11-21T06:47:03;7.80;99.90
19580;DHT22;9936;51.040;13.918;2023-11-21T06:50:54;7.80;99.90
19580;DHT22;9936;51.040;13.918;2023-11-21T06:54:42;7.80;99.90
19580;DHT22;9936;51.040;13.918;2023-11-21T06:58:46;7.70;99.90
19580;DHT22;9936;51.040;13.918;2023-11-21T07:02:45;7.70;99.90
19580;DHT22;9936;51.040;13.918;2023-11-21T07:06:41;7.70;99.90
19580;DHT22;9936;51.040;13.918;2023-11-21T07:10:48;7.70;99.90
19580;DHT22;9936;51.040;13.918;2023-11-21T07:14:41;7.70;99.90
19580;DHT22;9936;51.040;13.918;2023-11-21T07:18:33;7.60;99.90
19580;DHT22;9936;51.040;13.918;2023-11-21T07:22:19;7.60;99.90
19580;DHT22;9936;51.040;13.918;2023-11-21T07:26:08;7.60;99.90
19580;DHT22;9936;51.040;13.918;2023-11-21T07:29:54;7.60;99.90
19580;DHT22;9936;51.040;13.918;2023-11-21T07:33:42;7.60;99.90
19580;DHT22;9936;51.040;13.918;2023-11-21T07:37:29;7.60;99.90
19580;DHT22;9936;51.040;13.918;2023-11-21T07:41:17;7.60;99.90
19580;DHT22;9936;51.040;13.918;2023-11-21T07:45:08;7.60;99.90
19580;DHT22;9936;51.040;13.918;2023-11-21T07:49:12;7.60;99.90
19580;DHT22;9936;51.040;13.918;2023-11-21T07:53:02;7.60;99.90
19580;DHT22;9936;51.040;13.918;2023-11-21T07:56:58;7.60;99.90
19580;DHT22;9936;51.040;13.918;2023-11-21T08:00:44;7.60;99.90
19580;DHT22;9936;51.040;13.918;2023-11-21T08:04:34;7.70;99.90
19580;DHT22;9936;51.040;13.918;2023-11-21T08:08:26;7.60;99.90
19580;DHT22;9936;51.040;13.918;2023-11-21T08:12:15;7.70;99.90
19580;DHT22;9936;51.040;13.918;2023-11-21T08:16:01;7.70;99.90
19580;DHT22;9936;51.040;13.918;2023-11-21T08:19:50;7.70;99.90
19580;DHT22;9936;51.040;13.918;2023-11-21T08:23:37;7.70;99.90
19580;DHT22;9936;51.040;13.918;2023-11-21T08:27:23;7.80;99.90
19580;DHT22;9936;51.040;13.918;2023-11-21T08:31:09;7.70;99.90
19580;DHT22;9936;51.040;13.918;2023-11-21T08:34:55;7.70;99.90
19580;DHT22;9936;51.040;13.918;2023-11-21T08:38:41;7.70;99.90
19580;DHT22;9936;51.040;13.918;2023-11-21T08:42:28;7.60;99.90
19580;DHT22;9936;51.040;13.918;2023-11-21T08:46:15;7.70;99.90
19580;DHT22;9936;51.040;13.918;2023-11-21T08:50:03;7.50;99.90
19580;DHT22;9936;51.040;13.918;2023-11-21T08:53:54;7.70;99.90
19580;DHT22;9936;51.040;13.918;2023-11-21T08:57:48;7.60;99.90
19580;DHT22;9936;51.040;13.918;2023-11-21T09:01:34;7.60;99.90
19580;DHT22;9936;51.040;13.918;2023-11-21T09:05:20;7.60;99.90
19580;DHT22;9936;51.040;13.918;2023-11-21T09:09:06;7.60;99.90
19580;DHT22;9936;51.040;13.918;2023-11-21T09:12:53;7.60;99.90
19580;DHT22;9936;51.040;13.918;2023-11-21T09:16:48;7.60;99.90
19580;DHT22;9936;51.040;13.918;2023-11-21T09:20:41;7.60;99.90
19580;DHT22;9936;51.040;13.918;2023-11-21T09:24:32;7.70;99.90
19580;DHT22;9936;51.040;13.918;2023-11-21T09:28:20;7.60;99.90
19580;DHT22;9936;51.040;13.918;2023-11-21T09:32:14;7.60;99.90
19580;DHT22;9936;51.040;13.918;2023-11-21T09:36:10;7.60;99.90
19580;DHT22;9936;51.040;13.918;2023-11-21T09:40:26;7.60;99.90
19580;DHT22;9936;51.040;13.918;2023-11-21T09:44:35;7.70;99.90
19580;DHT22;9936;51.040;13.918;2023-11-21T09:48:33;7.70;99.90
19580;DHT22;9936;51.040;13.918;2023-11-21T09:52:38;7.70;99.90
19580;DHT22;9936;51.040;13.918;2023-11-21T09:56:39;7.60;99.90
19580;DHT22;9936;51.040;13.918;2023-11-21T10:00:41;7.70;99.90
19580;DHT22;9936;51.040;13.918;2023-11-21T10:04:39;7.60;99.90
19580;DHT22;9936;51.040;13.918;2023-11-21T10:08:49;7.60;99.90
19580;DHT22;9936;51.040;13.918;2023-11-21T10:13:22;7.60;99.90
19580;DHT22;9936;51.040;13.918;2023-11-21T10:17:17;7.60;99.90
19580;DHT22;9936;51.040;13.918;2023-11-21T10:21:11;7.50;99.90
19580;DHT22;9936;51.040;13.918;2023-11-21T10:25:10;7.50;99.90
19580;DHT22;9936;51.040;13.918;2023-11-21T10:29:36;7.50;99.90
19580;DHT22;9936;51.040;13.918;2023-11-21T10:33:36;7.50;99.90
19580;DHT22;9936;51.040;13.918;2023-11-21T10:37:32;7.50;99.90
19580;DHT22;9936;51.040;13.918;2023-11-21T10:41:24;7.50;99.90
19580;DHT22;9936;51.040;13.918;2023-11-21T10:45:17;7.50;99.90
19580;DHT22;9936;51.040;13.918;2023-11-21T10:49:07;7.50;99.90
19580;DHT22;9936;51.040;13.918;2023-11-21T10:52:56;7.40;99.90
19580;DHT22;9936;51.040;13.918;2023-11-21T10:56:48;7.40;99.90
19580;DHT22;9936;51.040;13.918;2023-11-21T11:00:40;7.40;99.90
19580;DHT22;9936;51.040;13.918;2023-11-21T11:04:48;7.30;99.90
19580;DHT22;9936;51.040;13.918;2023-11-21T11:08:36;7.30;99.90
19580;DHT22;9936;51.040;13.918;2023-11-21T11:12:25;7.40;99.90
19580;DHT22;9936;51.040;13.918;2023-11-21T11:16:26;7.20;99.90
19580;DHT22;9936;51.040;13.918;2023-11-21T11:20:37;7.30;99.90
19580;DHT22;9936;51.040;13.918;2023-11-21T11:24:44;7.30;99.90
19580;DHT22;9936;51.040;13.918;2023-11-21T11:28:47;7.10;99.90
19580;DHT22;9936;51.040;13.918;2023-11-21T11:37:15;7.10;99.90
19580;DHT22;9936;51.040;13.918;2023-11-21T11:41:11;7.00;99.90
19580;DHT22;9936;51.040;13.918;2023-11-21T11:45:22;6.90;99.90
19580;DHT22;9936;51.040;13.918;2023-11-21T11:50:01;6.90;99.90
19580;DHT22;9936;51.040;13.918;2023-11-21T11:54:06;6.70;99.90
19580;DHT22;9936;51.040;13.918;2023-11-21T11:58:04;6.70;99.90
19580;DHT22;9936;51.040;13.918;2023-11-21T12:01:53;6.60;99.90
19580;DHT22;9936;51.040;13.918;2023-11-21T12:05:50;6.50;99.90
19580;DHT22;9936;51.040;13.918;2023-11-21T12:09:46;6.50;99.90
19580;DHT22;9936;51.040;13.918;2023-11-21T12:13:41;6.60;99.90
19580;DHT22;9936;51.040;13.918;2023-11-21T12:17:27;6.40;99.90
19580;DHT22;9936;51.040;13.918;2023-11-21T12:21:19;6.40;99.90
19580;DHT22;9936;51.040;13.918;2023-11-21T12:25:12;6.40;99.90
19580;DHT22;9936;51.040;13.918;2023-11-21T12:29:03;6.70;99.90
19580;DHT22;9936;51.040;13.918;2023-11-21T12:32:56;6.50;99.90
19580;DHT22;9936;51.040;13.918;2023-11-21T12:36:44;6.80;99.90
19580;DHT22;9936;51.040;13.918;2023-11-21T12:40:31;6.60;99.90
19580;DHT22;9936;51.040;13.918;2023-11-21T12:44:19;6.60;99.90
19580;DHT22;9936;51.040;13.918;2023-11-21T12:48:12;6.40;99.90
19580;DHT22;9936;51.040;13.918;2023-11-21T12:51:59;6.30;99.90
19580;DHT22;9936;51.040;13.918;2023-11-21T12:55:46;6.20;99.90
19580;DHT22;9936;51.040;13.918;2023-11-21T12:59:39;6.30;99.90
19580;DHT22;9936;51.040;13.918;2023-11-21T13:03:31;6.40;99.90
19580;DHT22;9936;51.040;13.918;2023-11-21T13:07:18;6.40;99.90
19580;DHT22;9936;51.040;13.918;2023-11-21T13:11:13;6.40;99.90
19580;DHT22;9936;51.040;13.918;2023-11-21T13:15:08;6.40;99.90
19580;DHT22;9936;51.040;13.918;2023-11-21T13:19:00;6.40;99.90
19580;DHT22;9936;51.040;13.918;2023-11-21T13:22:49;6.40;99.90
19580;DHT22;9936;51.040;13.918;2023-11-21T13:26:38;6.50;99.90
19580;DHT22;9936;51.040;13.918;2023-11-21T13:30:25;6.60;99.90
19580;DHT22;9936;51.040;13.918;2023-11-21T13:34:19;6.60;99.90
19580;DHT22;9936;51.040;13.918;2023-11-21T13:38:10;6.50;99.90
19580;DHT22;9936;51.040;13.918;2023-11-21T13:42:03;6.50;99.90
19580;DHT22;9936;51.040;13.918;2023-11-21T13:45:57;6.40;99.90
19580;DHT22;9936;51.040;13.918;2023-11-21T13:49:58;6.40;99.90
19580;DHT22;9936;51.040;13.918;2023-11-21T13:53:46;6.30;99.90
19580;DHT22;9936;51.040;13.918;2023-11-21T13:57:36;6.30;99.90
19580;DHT22;9936;51.040;13.918;2023-11-21T14:01:26;6.30;99.90
19580;DHT22;9936;51.040;13.918;2023-11-21T14:05:39;6.10;99.90
19580;DHT22;9936;51.040;13.918;2023-11-21T14:09:26;6.30;99.90
19580;DHT22;9936;51.040;13.918;2023-11-21T14:13:18;6.30;99.90
19580;DHT22;9936;51.040;13.918;2023-11-21T14:17:10;6.30;99.90
19580;DHT22;9936;51.040;13.918;2023-11-21T14:20:57;6.40;99.90
19580;DHT22;9936;51.040;13.918;2023-11-21T14:24:46;6.30;99.90
19580;DHT22;9936;51.040;13.918;2023-11-21T14:28:32;6.20;99.90
19580;DHT22;9936;51.040;13.918;2023-11-21T14:32:23;6.20;99.90
19580;DHT22;9936;51.040;13.918;2023-11-21T14:36:11;6.20;99.90
19580;DHT22;9936;51.040;13.918;2023-11-21T14:39:57;6.20;99.90
19580;DHT22;9936;51.040;13.918;2023-11-21T14:43:42;6.30;99.90
19580;DHT22;9936;51.040;13.918;2023-11-21T14:47:31;6.20;99.90
19580;DHT22;9936;51.040;13.918;2023-11-21T14:56:00;5.90;99.90
19580;DHT22;9936;51.040;13.918;2023-11-21T14:59:51;6.20;99.90
19580;DHT22;9936;51.040;13.918;2023-11-21T15:03:43;5.90;99.90
19580;DHT22;9936;51.040;13.918;2023-11-21T15:07:35;6.20;99.90
19580;DHT22;9936;51.040;13.918;2023-11-21T15:11:21;6.30;99.90
19580;DHT22;9936;51.040;13.918;2023-11-21T15:15:15;6.30;99.90
19580;DHT22;9936;51.040;13.918;2023-11-21T15:19:03;6.30;99.90
19580;DHT22;9936;51.040;13.918;2023-11-21T15:22:51;6.30;99.90
19580;DHT22;9936;51.040;13.918;2023-11-21T15:26:37;6.10;99.90
19580;DHT22;9936;51.040;13.918;2023-11-21T15:30:24;6.10;99.90
19580;DHT22;9936;51.040;13.918;2023-11-21T15:34:33;6.20;99.90
19580;DHT22;9936;51.040;13.918;2023-11-21T15:38:19;6.20;99.90
19580;DHT22;9936;51.040;13.918;2023-11-21T15:42:06;6.10;99.90
19580;DHT22;9936;51.040;13.918;2023-11-21T15:46:13;6.00;99.90
19580;DHT22;9936;51.040;13.918;2023-11-21T15:49:59;5.90;99.90
19580;DHT22;9936;51.040;13.918;2023-11-21T15:53:48;5.90;99.90
19580;DHT22;9936;51.040;13.918;2023-11-21T15:57:33;6.00;99.90
19580;DHT22;9936;51.040;13.918;2023-11-21T16:01:34;5.90;99.90
19580;DHT22;9936;51.040;13.918;2023-11-21T16:05:25;5.90;99.90
19580;DHT22;9936;51.040;13.918;2023-11-21T16:09:12;5.90;99.90
19580;DHT22;9936;51.040;13.918;2023-11-21T16:13:08;6.00;99.90
19580;DHT22;9936;51.040;13.918;2023-11-21T16:16:54;6.00;99.90
19580;DHT22;9936;51.040;13.918;2023-11-21T16:20:40;5.90;99.90
19580;DHT22;9936;51.040;13.918;2023-11-21T16:24:30;5.90;99.90
19580;DHT22;9936;51.040;13.918;2023-11-21T16:28:25;5.90;99.90
19580;DHT22;9936;51.040;13.918;2023-11-21T16:32:16;5.90;99.90
19580;DHT22;9936;51.040;13.918;2023-11-21T16:36:03;5.90;99.90
19580;DHT22;9936;51.040;13.918;2023-11-21T16:39:51;5.80;99.90
19580;DHT22;9936;51.040;13.918;2023-11-21T16:43:40;5.80;99.90
19580;DHT22;9936;51.040;13.918;2023-11-21T16:47:26;5.80;99.90
19580;DHT22;9936;51.040;13.918;2023-11-21T16:51:16;5.80;99.90
19580;DHT22;9936;51.040;13.918;2023-11-21T16:55:02;5.60;99.90
19580;DHT22;9936;51.040;13.918;2023-11-21T16:58:48;5.50;99.90
19580;DHT22;9936;51.040;13.918;2023-11-21T17:02:40;5.60;99.90
19580;DHT22;9936;51.040;13.918;2023-11-21T17:06:30;5.60;99.90
19580;DHT22;9936;51.040;13.918;2023-11-21T17:10:43;5.50;99.90
19580;DHT22;9936;51.040;13.918;2023-11-21T17:14:33;5.40;99.90
19580;DHT22;9936;51.040;13.918;2023-11-21T17:18:20;5.40;99.90
19580;DHT22;9936;51.040;13.918;2023-11-21T17:22:21;5.40;99.90
19580;DHT22;9936;51.040;13.918;2023-11-21T17:26:07;5.40;99.90
19580;DHT22;9936;51.040;13.918;2023-11-21T17:29:53;5.30;99.90
19580;DHT22;9936;51.040;13.918;2023-11-21T17:33:39;5.30;99.90
19580;DHT22;9936;51.040;13.918;2023-11-21T17:37:25;5.40;99.90
19580;DHT22;9936;51.040;13.918;2023-11-21T17:41:11;5.50;99.90
19580;DHT22;9936;51.040;13.918;2023-11-21T17:45:01;5.40;99.90
19580;DHT22;9936;51.040;13.918;2023-11-21T17:48:50;5.50;99.90
19580;DHT22;9936;51.040;13.918;2023-11-21T17:52:37;5.50;99.90
19580;DHT22;9936;51.040;13.918;2023-11-21T17:56:23;5.40;99.90
19580;DHT22;9936;51.040;13.918;2023-11-21T18:00:12;5.30;99.90
19580;DHT22;9936;51.040;13.918;2023-11-21T18:03:57;5.30;99.90
19580;DHT22;9936;51.040;13.918;2023-11-21T18:07:44;5.20;99.90
19580;DHT22;9936;51.040;13.918;2023-11-21T18:11:30;5.20;99.90
19580;DHT22;9936;51.040;13.918;2023-11-21T18:15:20;5.10;99.90
19580;DHT22;9936;51.040;13.918;2023-11-21T18:19:05;5.00;99.90
19580;DHT22;9936;51.040;13.918;2023-11-21T18:22:51;5.00;99.90
19580;DHT22;9936;51.040;13.918;2023-11-21T18:26:38;5.00;99.90
19580;DHT22;9936;51.040;13.918;2023-11-21T18:30:24;5.10;99.90
19580;DHT22;9936;51.040;13.918;2023-11-21T18:34:10;5.20;99.90
19580;DHT22;9936;51.040;13.918;2023-11-21T18:38:00;5.20;99.90
19580;DHT22;9936;51.040;13.918;2023-11-21T18:41:46;5.20;99.90
19580;DHT22;9936;51.040;13.918;2023-11-21T18:45:33;5.10;99.90
19580;DHT22;9936;51.040;13.918;2023-11-21T18:49:20;5.10;99.90
19580;DHT22;9936;51.040;13.918;2023-11-21T18:53:05;5.10;99.90
19580;DHT22;9936;51.040;13.918;2023-11-21T18:56:51;5.10;99.90
19580;DHT22;9936;51.040;13.918;2023-11-21T19:00:39;5.00;99.90
19580;DHT22;9936;51.040;13.918;2023-11-21T19:04:25;4.90;99.90
19580;DHT22;9936;51.040;13.918;2023-11-21T19:08:13;4.60;99.90
19580;DHT22;9936;51.040;13.918;2023-11-21T19:11:59;4.80;99.90
19580;DHT22;9936;51.040;13.918;2023-11-21T19:15:45;4.70;99.90
19580;DHT22;9936;51.040;13.918;2023-11-21T19:19:35;4.80;99.90
19580;DHT22;9936;51.040;13.918;2023-11-21T19:23:21;4.90;99.90
19580;DHT22;9936;51.040;13.918;2023-11-21T19:27:06;5.00;99.90
19580;DHT22;9936;51.040;13.918;2023-11-21T19:30:55;5.00;99.90
19580;DHT22;9936;51.040;13.918;2023-11-21T19:34:41;5.00;99.90
19580;DHT22;9936;51.040;13.918;2023-11-21T19:38:27;5.00;99.90
19580;DHT22;9936;51.040;13.918;2023-11-21T19:42:13;5.00;99.90
19580;DHT22;9936;51.040;13.918;2023-11-21T19:45:59;4.80;99.90
19580;DHT22;9936;51.040;13.918;2023-11-21T19:49:45;4.80;99.90
19580;DHT22;9936;51.040;13.918;2023-11-21T19:53:31;4.70;99.90
19580;DHT22;9936;51.040;13.918;2023-11-21T19:57:18;4.70;99.90
19580;DHT22;9936;51.040;13.918;2023-11-21T20:01:03;4.70;99.90
19580;DHT22;9936;51.040;13.918;2023-11-21T20:04:49;4.40;99.90
19580;DHT22;9936;51.040;13.918;2023-11-21T20:08:35;4.20;99.90
19580;DHT22;9936;51.040;13.918;2023-11-21T20:12:21;4.10;99.90
19580;DHT22;9936;51.040;13.918;2023-11-21T20:16:07;4.50;99.90
19580;DHT22;9936;51.040;13.918;2023-11-21T20:19:53;4.40;99.90
19580;DHT22;9936;51.040;13.918;2023-11-21T20:23:40;4.40;99.90
19580;DHT22;9936;51.040;13.918;2023-11-21T20:27:25;4.40;99.90
19580;DHT22;9936;51.040;13.918;2023-11-21T20:31:13;4.50;99.90
19580;DHT22;9936;51.040;13.918;2023-11-21T20:34:59;4.50;99.90
19580;DHT22;9936;51.040;13.918;2023-11-21T20:38:46;4.40;99.90
19580;DHT22;9936;51.040;13.918;2023-11-21T20:42:32;4.30;99.90
19580;DHT22;9936;51.040;13.918;2023-11-21T20:46:18;4.10;99.90
19580;DHT22;9936;51.040;13.918;2023-11-21T20:50:04;4.00;99.90
19580;DHT22;9936;51.040;13.918;2023-11-21T20:53:50;4.20;99.90
19580;DHT22;9936;51.040;13.918;2023-11-21T20:57:36;4.30;99.90
19580;DHT22;9936;51.040;13.918;2023-11-21T21:01:33;4.30;99.90
19580;DHT22;9936;51.040;13.918;2023-11-21T21:05:18;4.20;99.90
19580;DHT22;9936;51.040;13.918;2023-11-21T21:09:07;4.10;99.90
19580;DHT22;9936;51.040;13.918;2023-11-21T21:12:58;4.20;99.90
19580;DHT22;9936;51.040;13.918;2023-11-21T21:16:44;4.10;99.90
19580;DHT22;9936;51.040;13.918;2023-11-21T21:20:30;3.90;99.90
19580;DHT22;9936;51.040;13.918;2023-11-21T21:24:16;3.90;99.90
19580;DHT22;9936;51.040;13.918;2023-11-21T21:28:02;3.90;99.90
19580;DHT22;9936;51.040;13.918;2023-11-21T21:31:48;4.00;99.90
19580;DHT22;9936;51.040;13.918;2023-11-21T21:35:35;4.00;99.90
19580;DHT22;9936;51.040;13.918;2023-11-21T21:39:21;4.20;99.90
19580;DHT22;9936;51.040;13.918;2023-11-21T21:43:07;4.10;99.90
19580;DHT22;9936;51.040;13.918;2023-11-21T21:46:52;4.10;99.90
19580;DHT22;9936;51.040;13.918;2023-11-21T21:50:39;4.10;99.90
19580;DHT22;9936;51.040;13.918;2023-11-21T21:54:25;4.10;99.90
19580;DHT22;9936;51.040;13.918;2023-11-21T21:58:14;3.90;99.90
19580;DHT22;9936;51.040;13.918;2023-11-21T22:02:00;3.80;99.90
19580;DHT22;9936;51.040;13.918;2023-11-21T22:05:45;3.80;99.90
19580;DHT22;9936;51.040;13.918;2023-11-21T22:09:31;3.70;99.90
19580;DHT22;9936;51.040;13.918;2023-11-21T22:13:18;3.70;99.90
19580;DHT22;9936;51.040;13.918;2023-11-21T22:17:04;3.70;99.90
19580;DHT22;9936;51.040;13.918;2023-11-21T22:20:50;3.60;99.90
19580;DHT22;9936;51.040;13.918;2023-11-21T22:24:37;3.50;99.90
19580;DHT22;9936;51.040;13.918;2023-11-21T22:28:23;3.60;99.90
19580;DHT22;9936;51.040;13.918;2023-11-21T22:32:09;3.60;99.90
19580;DHT22;9936;51.040;13.918;2023-11-21T22:35:54;3.50;99.90
19580;DHT22;9936;51.040;13.918;2023-11-21T22:39:41;3.60;99.90
19580;DHT22;9936;51.040;13.918;2023-11-21T22:43:27;3.60;99.90
19580;DHT22;9936;51.040;13.918;2023-11-21T22:47:13;3.60;99.90
19580;DHT22;9936;51.040;13.918;2023-11-21T22:50:59;3.50;99.90
19580;DHT22;9936;51.040;13.918;2023-11-21T22:54:45;3.60;99.90
19580;DHT22;9936;51.040;13.918;2023-11-21T22:58:30;3.70;99.90
19580;DHT22;9936;51.040;13.918;2023-11-21T23:02:16;3.70;99.90
19580;DHT22;9936;51.040;13.918;2023-11-21T23:06:02;3.60;99.90
19580;DHT22;9936;51.040;13.918;2023-11-21T23:09:48;3.40;99.90
19580;DHT22;9936;51.040;13.918;2023-11-21T23:13:34;3.40;99.90
19580;DHT22;9936;51.040;13.918;2023-11-21T23:17:20;3.50;99.90
19580;DHT22;9936;51.040;13.918;2023-11-21T23:21:05;3.50;99.90
19580;DHT22;9936;51.040;13.918;2023-11-21T23:24:54;3.60;99.90
19580;DHT22;9936;51.040;13.918;2023-11-21T23:28:40;3.50;99.90
19580;DHT22;9936;51.040;13.918;2023-11-21T23:32:25;3.70;99.90
19580;DHT22;9936;51.040;13.918;2023-11-21T23:36:12;3.50;99.90
19580;DHT22;9936;51.040;13.918;2023-11-21T23:39:57;3.30;99.90
19580;DHT22;9936;51.040;13.918;2023-11-21T23:43:44;3.20;99.90
19580;DHT22;9936;51.040;13.918;2023-11-21T23:47:30;3.20;99.90
19580;DHT22;9936;51.040;13.918;2023-11-21T23:51:15;3.20;99.90
19580;DHT22;9936;51.040;13.918;2023-11-21T23:55:01;3.40;99.90
19580;DHT22;9936;51.040;13.918;2023-11-21T23:58:48;3.30;99.90
